sensor_id;sensor_type;location;lat;lon;timestamp;P1;durP1;ratioP1;P2;durP2;ratioP2
46717;SDS011;32448;44.960;-0.698;2023-11-21T00:00:35;11.48;;;3.22;;
46717;SDS011;32448;44.960;-0.698;2023-11-21T00:03:02;10.60;;;2.97;;
46717;SDS011;32448;44.960;-0.698;2023-11-21T00:05:30;19.38;;;2.80;;
46717;SDS011;32448;44.960;-0.698;2023-11-21T00:07:57;7.20;;;2.20;;
46717;SDS011;32448;44.960;-0.698;2023-11-21T00:10:24;9.70;;;2.25;;
46717;SDS011;32448;44.960;-0.698;2023-11-21T00:12:51;13.98;;;5.65;;
46717;SDS011;32448;44.960;-0.698;2023-11-21T00:15:21;19.77;;;8.90;;
46717;SDS011;32448;44.960;-0.698;2023-11-21T00:17:48;22.00;;;9.75;;
46717;SDS011;32448;44.960;-0.698;2023-11-21T00:20:16;34.45;;;18.17;;
46717;SDS011;32448;44.960;-0.698;2023-11-21T00:22:43;36.60;;;15.15;;
46717;SDS011;32448;44.960;-0.698;2023-11-21T00:25:10;30.88;;;13.10;;
46717;SDS011;32448;44.960;-0.698;2023-11-21T00:27:37;25.92;;;12.88;;
46717;SDS011;32448;44.960;-0.698;2023-11-21T00:30:05;36.65;;;15.95;;
46717;SDS011;32448;44.960;-0.698;2023-11-21T00:32:35;33.67;;;17.98;;
46717;SDS011;32448;44.960;-0.698;2023-11-21T00:35:03;25.45;;;13.43;;
46717;SDS011;32448;44.960;-0.698;2023-11-21T00:37:30;24.83;;;11.27;;
46717;SDS011;32448;44.960;-0.698;2023-11-21T00:39:58;29.70;;;14.63;;
46717;SDS011;32448;44.960;-0.698;2023-11-21T00:42:26;34.80;;;16.17;;
46717;SDS011;32448;44.960;-0.698;2023-11-21T00:44:54;25.15;;;11.00;;
46717;SDS011;32448;44.960;-0.698;2023-11-21T00:47:21;29.23;;;14.45;;
46717;SDS011;32448;44.960;-0.698;2023-11-21T00:49:49;36.15;;;17.33;;
46717;SDS011;32448;44.960;-0.698;2023-11-21T00:52:16;36.97;;;17.27;;
46717;SDS011;32448;44.960;-0.698;2023-11-21T00:54:43;16.15;;;5.32;;
46717;SDS011;32448;44.960;-0.698;2023-11-21T00:57:11;18.42;;;4.88;;
46717;SDS011;32448;44.960;-0.698;2023-11-21T00:59:38;16.38;;;4.60;;
46717;SDS011;32448;44.960;-0.698;2023-11-21T01:02:20;18.13;;;2.80;;
46717;SDS011;32448;44.960;-0.698;2023-11-21T01:05:25;11.77;;;1.95;;
46717;SDS011;32448;44.960;-0.698;2023-11-21T01:08:05;14.55;;;2.88;;
46717;SDS011;32448;44.960;-0.698;2023-11-21T01:10:34;13.18;;;4.95;;
46717;SDS011;32448;44.960;-0.698;2023-11-21T01:13:14;27.50;;;10.85;;
46717;SDS011;32448;44.960;-0.698;2023-11-21T01:15:44;21.30;;;10.05;;
46717;SDS011;32448;44.960;-0.698;2023-11-21T01:18:11;24.55;;;10.25;;
46717;SDS011;32448;44.960;-0.698;2023-11-21T01:20:45;30.73;;;13.90;;
46717;SDS011;32448;44.960;-0.698;2023-11-21T01:23:16;47.65;;;19.35;;
46717;SDS011;32448;44.960;-0.698;2023-11-21T01:26:05;58.25;;;27.23;;
46717;SDS011;32448;44.960;-0.698;2023-11-21T01:28:39;56.33;;;26.33;;
46717;SDS011;32448;44.960;-0.698;2023-11-21T01:31:12;44.42;;;20.85;;
46717;SDS011;32448;44.960;-0.698;2023-11-21T01:33:43;30.25;;;11.68;;
46717;SDS011;32448;44.960;-0.698;2023-11-21T01:38:47;16.85;;;7.70;;
46717;SDS011;32448;44.960;-0.698;2023-11-21T01:41:16;52.45;;;21.25;;
46717;SDS011;32448;44.960;-0.698;2023-11-21T01:43:43;52.30;;;22.85;;
46717;SDS011;32448;44.960;-0.698;2023-11-21T01:46:10;30.92;;;15.75;;
46717;SDS011;32448;44.960;-0.698;2023-11-21T01:48:38;27.90;;;10.13;;
46717;SDS011;32448;44.960;-0.698;2023-11-21T01:51:05;22.58;;;7.18;;
46717;SDS011;32448;44.960;-0.698;2023-11-21T01:53:34;16.00;;;6.35;;
46717;SDS011;32448;44.960;-0.698;2023-11-21T01:56:03;41.10;;;17.42;;
46717;SDS011;32448;44.960;-0.698;2023-11-21T01:58:30;35.85;;;13.82;;
46717;SDS011;32448;44.960;-0.698;2023-11-21T02:00:59;24.90;;;8.98;;
46717;SDS011;32448;44.960;-0.698;2023-11-21T02:03:27;20.67;;;7.57;;
46717;SDS011;32448;44.960;-0.698;2023-11-21T02:05:54;14.00;;;4.18;;
46717;SDS011;32448;44.960;-0.698;2023-11-21T02:08:21;9.93;;;2.47;;
46717;SDS011;32448;44.960;-0.698;2023-11-21T02:10:48;5.88;;;1.73;;
46717;SDS011;32448;44.960;-0.698;2023-11-21T02:13:15;10.50;;;1.48;;
46717;SDS011;32448;44.960;-0.698;2023-11-21T02:15:43;10.38;;;1.90;;
46717;SDS011;32448;44.960;-0.698;2023-11-21T02:18:10;9.00;;;2.10;;
46717;SDS011;32448;44.960;-0.698;2023-11-21T02:20:37;5.00;;;2.22;;
46717;SDS011;32448;44.960;-0.698;2023-11-21T02:23:05;4.60;;;1.30;;
46717;SDS011;32448;44.960;-0.698;2023-11-21T02:25:33;7.90;;;1.30;;
46717;SDS011;32448;44.960;-0.698;2023-11-21T02:28:01;7.28;;;1.48;;
46717;SDS011;32448;44.960;-0.698;2023-11-21T02:30:29;5.03;;;1.00;;
46717;SDS011;32448;44.960;-0.698;2023-11-21T02:33:00;6.75;;;1.20;;
46717;SDS011;32448;44.960;-0.698;2023-11-21T02:35:30;7.63;;;1.20;;
46717;SDS011;32448;44.960;-0.698;2023-11-21T02:37:58;8.35;;;1.52;;
46717;SDS011;32448;44.960;-0.698;2023-11-21T02:40:25;5.28;;;1.30;;
46717;SDS011;32448;44.960;-0.698;2023-11-21T02:42:53;4.53;;;1.08;;
46717;SDS011;32448;44.960;-0.698;2023-11-21T02:45:21;6.45;;;1.48;;
46717;SDS011;32448;44.960;-0.698;2023-11-21T02:47:49;7.00;;;1.27;;
46717;SDS011;32448;44.960;-0.698;2023-11-21T02:50:16;2.13;;;0.90;;
46717;SDS011;32448;44.960;-0.698;2023-11-21T02:52:45;4.38;;;0.90;;
46717;SDS011;32448;44.960;-0.698;2023-11-21T02:55:13;2.90;;;1.30;;
46717;SDS011;32448;44.960;-0.698;2023-11-21T02:57:40;5.18;;;1.30;;
46717;SDS011;32448;44.960;-0.698;2023-11-21T03:00:07;9.43;;;1.08;;
46717;SDS011;32448;44.960;-0.698;2023-11-21T03:02:34;8.05;;;1.30;;
46717;SDS011;32448;44.960;-0.698;2023-11-21T03:05:06;5.25;;;1.33;;
46717;SDS011;32448;44.960;-0.698;2023-11-21T03:07:38;7.10;;;1.33;;
46717;SDS011;32448;44.960;-0.698;2023-11-21T03:10:07;5.05;;;1.20;;
46717;SDS011;32448;44.960;-0.698;2023-11-21T03:12:38;10.02;;;1.42;;
46717;SDS011;32448;44.960;-0.698;2023-11-21T03:15:06;5.00;;;1.25;;
46717;SDS011;32448;44.960;-0.698;2023-11-21T03:17:33;5.07;;;1.05;;
46717;SDS011;32448;44.960;-0.698;2023-11-21T03:20:00;7.70;;;1.55;;
46717;SDS011;32448;44.960;-0.698;2023-11-21T03:22:27;6.47;;;1.30;;
46717;SDS011;32448;44.960;-0.698;2023-11-21T03:24:54;3.55;;;0.90;;
46717;SDS011;32448;44.960;-0.698;2023-11-21T03:27:21;9.82;;;1.70;;
46717;SDS011;32448;44.960;-0.698;2023-11-21T03:29:48;5.13;;;1.17;;
46717;SDS011;32448;44.960;-0.698;2023-11-21T03:32:16;8.02;;;1.10;;
46717;SDS011;32448;44.960;-0.698;2023-11-21T03:34:57;13.07;;;1.85;;
46717;SDS011;32448;44.960;-0.698;2023-11-21T03:37:25;7.32;;;1.08;;
46717;SDS011;32448;44.960;-0.698;2023-11-21T03:39:55;6.10;;;1.30;;
46717;SDS011;32448;44.960;-0.698;2023-11-21T03:42:23;8.18;;;1.80;;
46717;SDS011;32448;44.960;-0.698;2023-11-21T03:44:52;12.65;;;1.70;;
46717;SDS011;32448;44.960;-0.698;2023-11-21T03:47:19;8.52;;;1.73;;
46717;SDS011;32448;44.960;-0.698;2023-11-21T03:49:46;9.27;;;1.67;;
46717;SDS011;32448;44.960;-0.698;2023-11-21T03:52:16;9.77;;;1.58;;
46717;SDS011;32448;44.960;-0.698;2023-11-21T03:54:43;14.95;;;1.90;;
46717;SDS011;32448;44.960;-0.698;2023-11-21T03:57:10;15.27;;;1.92;;
46717;SDS011;32448;44.960;-0.698;2023-11-21T03:59:41;9.30;;;1.60;;
46717;SDS011;32448;44.960;-0.698;2023-11-21T04:02:09;10.27;;;1.77;;
46717;SDS011;32448;44.960;-0.698;2023-11-21T04:04:36;21.98;;;2.33;;
46717;SDS011;32448;44.960;-0.698;2023-11-21T04:07:03;15.40;;;1.60;;
46717;SDS011;32448;44.960;-0.698;2023-11-21T04:09:31;15.73;;;1.90;;
46717;SDS011;32448;44.960;-0.698;2023-11-21T04:11:58;11.85;;;1.90;;
46717;SDS011;32448;44.960;-0.698;2023-11-21T04:14:25;13.57;;;1.60;;
46717;SDS011;32448;44.960;-0.698;2023-11-21T04:16:52;20.38;;;2.67;;
46717;SDS011;32448;44.960;-0.698;2023-11-21T04:19:20;17.50;;;2.00;;
46717;SDS011;32448;44.960;-0.698;2023-11-21T04:21:47;10.07;;;1.73;;
46717;SDS011;32448;44.960;-0.698;2023-11-21T04:24:16;13.38;;;2.17;;
46717;SDS011;32448;44.960;-0.698;2023-11-21T04:26:44;8.65;;;1.92;;
46717;SDS011;32448;44.960;-0.698;2023-11-21T04:29:11;8.55;;;1.70;;
46717;SDS011;32448;44.960;-0.698;2023-11-21T04:31:38;11.65;;;1.95;;
46717;SDS011;32448;44.960;-0.698;2023-11-21T04:34:05;17.52;;;1.70;;
46717;SDS011;32448;44.960;-0.698;2023-11-21T04:36:32;13.15;;;2.35;;
46717;SDS011;32448;44.960;-0.698;2023-11-21T04:38:59;4.63;;;1.25;;
46717;SDS011;32448;44.960;-0.698;2023-11-21T04:41:25;13.73;;;1.80;;
46717;SDS011;32448;44.960;-0.698;2023-11-21T04:43:53;9.02;;;1.98;;
46717;SDS011;32448;44.960;-0.698;2023-11-21T04:46:20;9.50;;;1.63;;
46717;SDS011;32448;44.960;-0.698;2023-11-21T04:48:47;12.05;;;1.80;;
46717;SDS011;32448;44.960;-0.698;2023-11-21T04:51:13;10.93;;;2.03;;
46717;SDS011;32448;44.960;-0.698;2023-11-21T04:53:40;11.05;;;1.88;;
46717;SDS011;32448;44.960;-0.698;2023-11-21T04:56:07;7.20;;;1.52;;
46717;SDS011;32448;44.960;-0.698;2023-11-21T04:58:34;10.43;;;1.30;;
46717;SDS011;32448;44.960;-0.698;2023-11-21T05:01:02;8.35;;;1.48;;
46717;SDS011;32448;44.960;-0.698;2023-11-21T05:03:33;9.95;;;1.58;;
46717;SDS011;32448;44.960;-0.698;2023-11-21T05:06:01;8.25;;;1.98;;
46717;SDS011;32448;44.960;-0.698;2023-11-21T05:08:28;9.05;;;1.65;;
46717;SDS011;32448;44.960;-0.698;2023-11-21T05:10:54;5.38;;;1.70;;
46717;SDS011;32448;44.960;-0.698;2023-11-21T05:13:21;13.82;;;1.80;;
46717;SDS011;32448;44.960;-0.698;2023-11-21T05:15:49;6.45;;;1.50;;
46717;SDS011;32448;44.960;-0.698;2023-11-21T05:18:16;8.52;;;2.05;;
46717;SDS011;32448;44.960;-0.698;2023-11-21T05:20:42;6.32;;;1.98;;
46717;SDS011;32448;44.960;-0.698;2023-11-21T05:23:09;13.13;;;2.67;;
46717;SDS011;32448;44.960;-0.698;2023-11-21T05:25:36;8.52;;;2.00;;
46717;SDS011;32448;44.960;-0.698;2023-11-21T05:28:06;9.75;;;1.75;;
46717;SDS011;32448;44.960;-0.698;2023-11-21T05:30:33;14.45;;;1.50;;
46717;SDS011;32448;44.960;-0.698;2023-11-21T05:33:00;7.90;;;1.70;;
46717;SDS011;32448;44.960;-0.698;2023-11-21T05:35:27;6.90;;;1.65;;
46717;SDS011;32448;44.960;-0.698;2023-11-21T05:37:54;9.60;;;1.67;;
46717;SDS011;32448;44.960;-0.698;2023-11-21T05:40:21;8.85;;;2.08;;
46717;SDS011;32448;44.960;-0.698;2023-11-21T05:42:49;9.65;;;1.65;;
46717;SDS011;32448;44.960;-0.698;2023-11-21T05:45:17;8.75;;;2.13;;
46717;SDS011;32448;44.960;-0.698;2023-11-21T05:47:45;8.82;;;2.08;;
46717;SDS011;32448;44.960;-0.698;2023-11-21T05:50:14;10.02;;;2.00;;
46717;SDS011;32448;44.960;-0.698;2023-11-21T05:52:43;8.63;;;2.15;;
46717;SDS011;32448;44.960;-0.698;2023-11-21T05:55:11;7.40;;;2.05;;
46717;SDS011;32448;44.960;-0.698;2023-11-21T05:57:38;7.40;;;1.58;;
46717;SDS011;32448;44.960;-0.698;2023-11-21T06:00:15;10.00;;;1.90;;
46717;SDS011;32448;44.960;-0.698;2023-11-21T06:02:52;8.90;;;2.13;;
46717;SDS011;32448;44.960;-0.698;2023-11-21T06:05:22;9.18;;;2.03;;
46717;SDS011;32448;44.960;-0.698;2023-11-21T06:07:50;7.32;;;2.05;;
46717;SDS011;32448;44.960;-0.698;2023-11-21T06:10:22;7.30;;;1.60;;
46717;SDS011;32448;44.960;-0.698;2023-11-21T06:12:51;8.98;;;1.73;;
46717;SDS011;32448;44.960;-0.698;2023-11-21T06:15:18;5.07;;;1.30;;
46717;SDS011;32448;44.960;-0.698;2023-11-21T06:17:50;11.45;;;2.53;;
46717;SDS011;32448;44.960;-0.698;2023-11-21T06:20:20;11.25;;;1.73;;
46717;SDS011;32448;44.960;-0.698;2023-11-21T06:22:48;12.15;;;2.15;;
46717;SDS011;32448;44.960;-0.698;2023-11-21T06:25:19;13.80;;;2.03;;
46717;SDS011;32448;44.960;-0.698;2023-11-21T06:27:47;7.25;;;2.00;;
46717;SDS011;32448;44.960;-0.698;2023-11-21T06:30:14;9.93;;;1.70;;
46717;SDS011;32448;44.960;-0.698;2023-11-21T06:32:42;15.55;;;2.38;;
46717;SDS011;32448;44.960;-0.698;2023-11-21T06:35:14;9.73;;;2.40;;
46717;SDS011;32448;44.960;-0.698;2023-11-21T06:37:43;6.18;;;1.85;;
46717;SDS011;32448;44.960;-0.698;2023-11-21T06:40:18;11.43;;;2.47;;
46717;SDS011;32448;44.960;-0.698;2023-11-21T06:42:47;10.52;;;2.00;;
46717;SDS011;32448;44.960;-0.698;2023-11-21T06:45:15;11.48;;;2.50;;
46717;SDS011;32448;44.960;-0.698;2023-11-21T06:47:42;6.50;;;2.03;;
46717;SDS011;32448;44.960;-0.698;2023-11-21T06:50:09;6.05;;;2.00;;
46717;SDS011;32448;44.960;-0.698;2023-11-21T06:52:36;9.00;;;2.03;;
46717;SDS011;32448;44.960;-0.698;2023-11-21T06:55:03;6.80;;;2.50;;
46717;SDS011;32448;44.960;-0.698;2023-11-21T06:57:31;12.32;;;2.70;;
46717;SDS011;32448;44.960;-0.698;2023-11-21T06:59:58;13.07;;;2.70;;
46717;SDS011;32448;44.960;-0.698;2023-11-21T07:02:26;8.25;;;2.75;;
46717;SDS011;32448;44.960;-0.698;2023-11-21T07:04:52;9.20;;;3.22;;
46717;SDS011;32448;44.960;-0.698;2023-11-21T07:07:19;10.02;;;3.10;;
46717;SDS011;32448;44.960;-0.698;2023-11-21T07:09:46;6.70;;;2.50;;
46717;SDS011;32448;44.960;-0.698;2023-11-21T07:12:14;13.77;;;3.17;;
46717;SDS011;32448;44.960;-0.698;2023-11-21T07:14:41;10.25;;;2.83;;
46717;SDS011;32448;44.960;-0.698;2023-11-21T07:17:20;11.02;;;2.80;;
46717;SDS011;32448;44.960;-0.698;2023-11-21T07:19:49;8.13;;;3.10;;
46717;SDS011;32448;44.960;-0.698;2023-11-21T07:22:16;6.50;;;2.40;;
46717;SDS011;32448;44.960;-0.698;2023-11-21T07:24:51;10.57;;;2.50;;
46717;SDS011;32448;44.960;-0.698;2023-11-21T07:27:18;10.07;;;3.50;;
46717;SDS011;32448;44.960;-0.698;2023-11-21T07:29:45;10.60;;;2.53;;
46717;SDS011;32448;44.960;-0.698;2023-11-21T07:32:11;12.85;;;2.83;;
46717;SDS011;32448;44.960;-0.698;2023-11-21T07:34:39;11.48;;;2.95;;
46717;SDS011;32448;44.960;-0.698;2023-11-21T07:37:06;9.75;;;3.05;;
46717;SDS011;32448;44.960;-0.698;2023-11-21T07:39:35;8.25;;;2.88;;
46717;SDS011;32448;44.960;-0.698;2023-11-21T07:42:08;11.57;;;2.97;;
46717;SDS011;32448;44.960;-0.698;2023-11-21T07:44:35;6.43;;;2.72;;
46717;SDS011;32448;44.960;-0.698;2023-11-21T07:47:02;6.68;;;3.05;;
46717;SDS011;32448;44.960;-0.698;2023-11-21T07:49:31;9.63;;;2.85;;
46717;SDS011;32448;44.960;-0.698;2023-11-21T07:51:58;15.25;;;3.15;;
46717;SDS011;32448;44.960;-0.698;2023-11-21T07:54:24;8.77;;;2.97;;
46717;SDS011;32448;44.960;-0.698;2023-11-21T07:56:51;8.45;;;2.75;;
46717;SDS011;32448;44.960;-0.698;2023-11-21T07:59:18;8.75;;;2.97;;
46717;SDS011;32448;44.960;-0.698;2023-11-21T08:01:45;12.88;;;3.30;;
46717;SDS011;32448;44.960;-0.698;2023-11-21T08:04:12;10.02;;;2.83;;
46717;SDS011;32448;44.960;-0.698;2023-11-21T08:06:40;9.07;;;2.75;;
46717;SDS011;32448;44.960;-0.698;2023-11-21T08:09:08;11.93;;;2.88;;
46717;SDS011;32448;44.960;-0.698;2023-11-21T08:11:35;12.45;;;2.90;;
46717;SDS011;32448;44.960;-0.698;2023-11-21T08:14:06;13.77;;;2.58;;
46717;SDS011;32448;44.960;-0.698;2023-11-21T08:16:35;13.85;;;3.25;;
46717;SDS011;32448;44.960;-0.698;2023-11-21T08:19:05;12.55;;;3.45;;
46717;SDS011;32448;44.960;-0.698;2023-11-21T08:21:34;8.43;;;2.60;;
46717;SDS011;32448;44.960;-0.698;2023-11-21T08:24:07;7.07;;;2.80;;
46717;SDS011;32448;44.960;-0.698;2023-11-21T08:26:38;9.07;;;2.40;;
46717;SDS011;32448;44.960;-0.698;2023-11-21T08:29:04;7.22;;;2.13;;
46717;SDS011;32448;44.960;-0.698;2023-11-21T08:31:36;3.97;;;2.00;;
46717;SDS011;32448;44.960;-0.698;2023-11-21T08:34:04;12.35;;;2.42;;
46717;SDS011;32448;44.960;-0.698;2023-11-21T08:36:33;9.48;;;2.60;;
46717;SDS011;32448;44.960;-0.698;2023-11-21T08:39:00;10.07;;;2.03;;
46717;SDS011;32448;44.960;-0.698;2023-11-21T08:41:30;7.47;;;2.05;;
46717;SDS011;32448;44.960;-0.698;2023-11-21T08:43:57;5.68;;;2.15;;
46717;SDS011;32448;44.960;-0.698;2023-11-21T08:46:24;10.07;;;2.35;;
46717;SDS011;32448;44.960;-0.698;2023-11-21T08:48:54;9.52;;;2.15;;
46717;SDS011;32448;44.960;-0.698;2023-11-21T08:51:21;10.88;;;2.55;;
46717;SDS011;32448;44.960;-0.698;2023-11-21T08:53:47;7.47;;;2.22;;
46717;SDS011;32448;44.960;-0.698;2023-11-21T08:56:14;8.63;;;2.20;;
46717;SDS011;32448;44.960;-0.698;2023-11-21T08:58:41;10.20;;;1.90;;
46717;SDS011;32448;44.960;-0.698;2023-11-21T09:01:09;7.70;;;1.80;;
46717;SDS011;32448;44.960;-0.698;2023-11-21T09:03:35;4.50;;;1.65;;
46717;SDS011;32448;44.960;-0.698;2023-11-21T09:06:03;7.63;;;1.92;;
46717;SDS011;32448;44.960;-0.698;2023-11-21T09:08:30;8.93;;;2.33;;
46717;SDS011;32448;44.960;-0.698;2023-11-21T09:10:58;8.05;;;1.95;;
46717;SDS011;32448;44.960;-0.698;2023-11-21T09:13:25;7.00;;;1.70;;
46717;SDS011;32448;44.960;-0.698;2023-11-21T09:15:52;9.50;;;1.85;;
46717;SDS011;32448;44.960;-0.698;2023-11-21T09:18:18;6.63;;;2.03;;
46717;SDS011;32448;44.960;-0.698;2023-11-21T09:20:45;8.48;;;2.00;;
46717;SDS011;32448;44.960;-0.698;2023-11-21T09:23:12;5.35;;;1.65;;
46717;SDS011;32448;44.960;-0.698;2023-11-21T09:25:39;5.25;;;1.33;;
46717;SDS011;32448;44.960;-0.698;2023-11-21T09:28:06;2.75;;;1.20;;
46717;SDS011;32448;44.960;-0.698;2023-11-21T09:30:34;9.68;;;1.73;;
46717;SDS011;32448;44.960;-0.698;2023-11-21T09:33:02;13.98;;;1.80;;
46717;SDS011;32448;44.960;-0.698;2023-11-21T09:35:29;6.22;;;1.40;;
46717;SDS011;32448;44.960;-0.698;2023-11-21T09:37:56;6.05;;;1.13;;
46717;SDS011;32448;44.960;-0.698;2023-11-21T09:40:23;7.85;;;1.35;;
46717;SDS011;32448;44.960;-0.698;2023-11-21T09:42:56;7.30;;;1.23;;
46717;SDS011;32448;44.960;-0.698;2023-11-21T09:45:27;5.25;;;0.90;;
46717;SDS011;32448;44.960;-0.698;2023-11-21T09:47:55;7.78;;;1.30;;
46717;SDS011;32448;44.960;-0.698;2023-11-21T09:50:24;4.18;;;1.27;;
46717;SDS011;32448;44.960;-0.698;2023-11-21T09:55:47;5.13;;;1.00;;
46717;SDS011;32448;44.960;-0.698;2023-11-21T09:58:18;5.75;;;1.00;;
46717;SDS011;32448;44.960;-0.698;2023-11-21T10:00:46;7.13;;;0.90;;
46717;SDS011;32448;44.960;-0.698;2023-11-21T10:03:14;6.85;;;1.23;;
46717;SDS011;32448;44.960;-0.698;2023-11-21T10:05:42;6.20;;;1.00;;
46717;SDS011;32448;44.960;-0.698;2023-11-21T10:08:12;5.80;;;0.90;;
46717;SDS011;32448;44.960;-0.698;2023-11-21T10:10:42;6.13;;;0.98;;
46717;SDS011;32448;44.960;-0.698;2023-11-21T10:13:17;1.38;;;0.55;;
46717;SDS011;32448;44.960;-0.698;2023-11-21T10:15:49;8.68;;;1.00;;
46717;SDS011;32448;44.960;-0.698;2023-11-21T10:18:17;3.45;;;0.95;;
46717;SDS011;32448;44.960;-0.698;2023-11-21T10:20:45;8.93;;;1.33;;
46717;SDS011;32448;44.960;-0.698;2023-11-21T10:23:19;4.60;;;0.98;;
46717;SDS011;32448;44.960;-0.698;2023-11-21T10:25:48;7.15;;;1.10;;
46717;SDS011;32448;44.960;-0.698;2023-11-21T10:28:17;6.72;;;1.95;;
46717;SDS011;32448;44.960;-0.698;2023-11-21T10:30:44;5.05;;;1.25;;
46717;SDS011;32448;44.960;-0.698;2023-11-21T10:33:11;7.28;;;1.20;;
46717;SDS011;32448;44.960;-0.698;2023-11-21T10:35:38;8.57;;;1.30;;
46717;SDS011;32448;44.960;-0.698;2023-11-21T10:38:09;4.97;;;0.93;;
46717;SDS011;32448;44.960;-0.698;2023-11-21T10:40:43;8.32;;;1.00;;
46717;SDS011;32448;44.960;-0.698;2023-11-21T10:43:11;3.13;;;0.90;;
46717;SDS011;32448;44.960;-0.698;2023-11-21T10:45:41;5.72;;;1.00;;
46717;SDS011;32448;44.960;-0.698;2023-11-21T10:48:09;4.60;;;1.02;;
46717;SDS011;32448;44.960;-0.698;2023-11-21T10:50:46;7.00;;;1.20;;
46717;SDS011;32448;44.960;-0.698;2023-11-21T10:53:15;9.73;;;0.97;;
46717;SDS011;32448;44.960;-0.698;2023-11-21T10:55:42;5.28;;;1.00;;
46717;SDS011;32448;44.960;-0.698;2023-11-21T10:58:13;5.68;;;0.90;;
46717;SDS011;32448;44.960;-0.698;2023-11-21T11:00:41;3.80;;;1.15;;
46717;SDS011;32448;44.960;-0.698;2023-11-21T11:03:08;5.85;;;0.93;;
46717;SDS011;32448;44.960;-0.698;2023-11-21T11:05:43;5.38;;;0.90;;
46717;SDS011;32448;44.960;-0.698;2023-11-21T11:08:20;4.97;;;1.58;;
46717;SDS011;32448;44.960;-0.698;2023-11-21T11:10:54;7.20;;;1.60;;
46717;SDS011;32448;44.960;-0.698;2023-11-21T11:13:22;6.47;;;1.38;;
46717;SDS011;32448;44.960;-0.698;2023-11-21T11:15:49;4.80;;;0.90;;
46717;SDS011;32448;44.960;-0.698;2023-11-21T11:18:17;4.70;;;0.98;;
46717;SDS011;32448;44.960;-0.698;2023-11-21T11:20:48;5.75;;;1.05;;
46717;SDS011;32448;44.960;-0.698;2023-11-21T11:23:32;4.68;;;0.80;;
46717;SDS011;32448;44.960;-0.698;2023-11-21T11:29:02;4.93;;;0.80;;
46717;SDS011;32448;44.960;-0.698;2023-11-21T11:34:48;8.32;;;1.50;;
46717;SDS011;32448;44.960;-0.698;2023-11-21T11:37:19;8.75;;;1.67;;
46717;SDS011;32448;44.960;-0.698;2023-11-21T11:39:47;3.60;;;1.23;;
46717;SDS011;32448;44.960;-0.698;2023-11-21T11:42:16;6.22;;;1.20;;
46717;SDS011;32448;44.960;-0.698;2023-11-21T11:52:38;6.80;;;1.40;;
46717;SDS011;32448;44.960;-0.698;2023-11-21T11:55:17;4.82;;;1.02;;
46717;SDS011;32448;44.960;-0.698;2023-11-21T11:57:49;3.42;;;0.75;;
46717;SDS011;32448;44.960;-0.698;2023-11-21T12:00:33;6.85;;;0.98;;
46717;SDS011;32448;44.960;-0.698;2023-11-21T12:03:04;1.98;;;0.60;;
46717;SDS011;32448;44.960;-0.698;2023-11-21T12:05:34;3.70;;;0.93;;
46717;SDS011;32448;44.960;-0.698;2023-11-21T12:08:05;5.32;;;1.05;;
46717;SDS011;32448;44.960;-0.698;2023-11-21T12:10:35;5.57;;;1.52;;
46717;SDS011;32448;44.960;-0.698;2023-11-21T12:13:05;3.80;;;0.93;;
46717;SDS011;32448;44.960;-0.698;2023-11-21T12:15:37;2.90;;;0.80;;
46717;SDS011;32448;44.960;-0.698;2023-11-21T12:18:06;3.10;;;0.77;;
46717;SDS011;32448;44.960;-0.698;2023-11-21T12:20:34;4.78;;;1.02;;
46717;SDS011;32448;44.960;-0.698;2023-11-21T12:23:07;6.78;;;0.80;;
46717;SDS011;32448;44.960;-0.698;2023-11-21T12:25:36;4.03;;;1.00;;
46717;SDS011;32448;44.960;-0.698;2023-11-21T12:28:03;5.65;;;0.95;;
46717;SDS011;32448;44.960;-0.698;2023-11-21T12:30:30;4.60;;;1.00;;
46717;SDS011;32448;44.960;-0.698;2023-11-21T12:32:58;1.52;;;0.70;;
46717;SDS011;32448;44.960;-0.698;2023-11-21T12:35:30;6.05;;;1.10;;
46717;SDS011;32448;44.960;-0.698;2023-11-21T12:38:01;5.47;;;1.00;;
46717;SDS011;32448;44.960;-0.698;2023-11-21T12:40:29;3.88;;;1.10;;
46717;SDS011;32448;44.960;-0.698;2023-11-21T12:42:57;4.63;;;0.68;;
46717;SDS011;32448;44.960;-0.698;2023-11-21T12:45:26;3.85;;;1.08;;
46717;SDS011;32448;44.960;-0.698;2023-11-21T12:48:04;4.45;;;0.80;;
46717;SDS011;32448;44.960;-0.698;2023-11-21T12:50:38;3.22;;;0.80;;
46717;SDS011;32448;44.960;-0.698;2023-11-21T12:53:11;4.95;;;0.82;;
46717;SDS011;32448;44.960;-0.698;2023-11-21T12:55:39;3.55;;;1.00;;
46717;SDS011;32448;44.960;-0.698;2023-11-21T12:58:08;5.50;;;0.90;;
46717;SDS011;32448;44.960;-0.698;2023-11-21T13:00:56;4.47;;;0.98;;
46717;SDS011;32448;44.960;-0.698;2023-11-21T13:03:25;8.98;;;1.13;;
46717;SDS011;32448;44.960;-0.698;2023-11-21T13:05:53;3.55;;;0.80;;
46717;SDS011;32448;44.960;-0.698;2023-11-21T13:08:21;6.78;;;0.77;;
46717;SDS011;32448;44.960;-0.698;2023-11-21T13:10:54;8.85;;;1.15;;
46717;SDS011;32448;44.960;-0.698;2023-11-21T13:13:24;1.85;;;0.45;;
46717;SDS011;32448;44.960;-0.698;2023-11-21T13:15:59;4.63;;;0.82;;
46717;SDS011;32448;44.960;-0.698;2023-11-21T13:18:28;4.60;;;0.80;;
46717;SDS011;32448;44.960;-0.698;2023-11-21T13:20:58;5.25;;;1.05;;
46717;SDS011;32448;44.960;-0.698;2023-11-21T13:23:26;3.47;;;0.68;;
46717;SDS011;32448;44.960;-0.698;2023-11-21T13:25:53;5.18;;;0.88;;
46717;SDS011;32448;44.960;-0.698;2023-11-21T13:28:33;4.45;;;1.00;;
46717;SDS011;32448;44.960;-0.698;2023-11-21T13:31:02;2.60;;;0.80;;
46717;SDS011;32448;44.960;-0.698;2023-11-21T13:33:51;3.10;;;0.70;;
46717;SDS011;32448;44.960;-0.698;2023-11-21T13:36:23;5.68;;;0.80;;
46717;SDS011;32448;44.960;-0.698;2023-11-21T13:38:51;5.47;;;0.88;;
46717;SDS011;32448;44.960;-0.698;2023-11-21T13:41:21;4.88;;;0.90;;
46717;SDS011;32448;44.960;-0.698;2023-11-21T13:43:57;3.63;;;0.70;;
46717;SDS011;32448;44.960;-0.698;2023-11-21T13:46:40;2.88;;;0.75;;
46717;SDS011;32448;44.960;-0.698;2023-11-21T13:49:07;3.90;;;0.82;;
46717;SDS011;32448;44.960;-0.698;2023-11-21T13:51:37;1.80;;;0.68;;
46717;SDS011;32448;44.960;-0.698;2023-11-21T13:54:17;2.58;;;0.60;;
46717;SDS011;32448;44.960;-0.698;2023-11-21T13:56:45;3.47;;;0.90;;
46717;SDS011;32448;44.960;-0.698;2023-11-21T13:59:12;4.50;;;0.73;;
46717;SDS011;32448;44.960;-0.698;2023-11-21T14:01:55;7.85;;;1.50;;
46717;SDS011;32448;44.960;-0.698;2023-11-21T14:04:23;3.95;;;0.90;;
46717;SDS011;32448;44.960;-0.698;2023-11-21T14:06:57;6.32;;;1.55;;
46717;SDS011;32448;44.960;-0.698;2023-11-21T14:09:28;5.50;;;0.95;;
46717;SDS011;32448;44.960;-0.698;2023-11-21T14:12:03;3.17;;;0.88;;
46717;SDS011;32448;44.960;-0.698;2023-11-21T14:14:33;4.10;;;1.05;;
46717;SDS011;32448;44.960;-0.698;2023-11-21T14:17:00;5.30;;;1.25;;
46717;SDS011;32448;44.960;-0.698;2023-11-21T14:19:33;2.90;;;0.90;;
46717;SDS011;32448;44.960;-0.698;2023-11-21T14:22:00;3.40;;;0.90;;
46717;SDS011;32448;44.960;-0.698;2023-11-21T14:24:27;7.22;;;0.88;;
46717;SDS011;32448;44.960;-0.698;2023-11-21T14:26:55;4.53;;;1.00;;
46717;SDS011;32448;44.960;-0.698;2023-11-21T14:29:22;7.68;;;1.20;;
46717;SDS011;32448;44.960;-0.698;2023-11-21T14:31:50;7.65;;;0.95;;
46717;SDS011;32448;44.960;-0.698;2023-11-21T14:34:20;6.30;;;1.10;;
46717;SDS011;32448;44.960;-0.698;2023-11-21T14:36:52;4.78;;;0.68;;
46717;SDS011;32448;44.960;-0.698;2023-11-21T14:39:18;5.88;;;0.70;;
46717;SDS011;32448;44.960;-0.698;2023-11-21T14:41:55;2.35;;;0.63;;
46717;SDS011;32448;44.960;-0.698;2023-11-21T14:44:26;4.47;;;1.27;;
46717;SDS011;32448;44.960;-0.698;2023-11-21T14:46:55;3.78;;;0.80;;
46717;SDS011;32448;44.960;-0.698;2023-11-21T14:49:24;3.30;;;0.77;;
46717;SDS011;32448;44.960;-0.698;2023-11-21T14:51:54;6.00;;;1.25;;
46717;SDS011;32448;44.960;-0.698;2023-11-21T14:54:29;5.32;;;0.93;;
46717;SDS011;32448;44.960;-0.698;2023-11-21T14:57:13;8.75;;;0.80;;
46717;SDS011;32448;44.960;-0.698;2023-11-21T14:59:45;7.90;;;1.45;;